createdAt,value
2018-09-14T00:01:48.493Z,9.03
2018-09-14T00:04:18.469Z,6.37
2018-09-14T00:06:47.429Z,9.40
2018-09-14T00:09:16.420Z,8.07
2018-09-14T00:11:45.457Z,9.40
2018-09-14T00:14:14.394Z,10.30
2018-09-14T00:16:43.429Z,10.47
2018-09-14T00:19:12.394Z,7.73
2018-09-14T00:21:41.408Z,10.03
2018-09-14T00:24:10.385Z,8.60
2018-09-14T00:26:39.500Z,8.83
2018-09-14T00:29:08.483Z,8.77
2018-09-14T00:31:37.467Z,10.17
2018-09-14T00:34:06.620Z,8.03
2018-09-14T00:36:35.527Z,6.83
2018-09-14T00:39:06.059Z,8.97
2018-09-14T00:41:35.979Z,10.87
2018-09-14T00:44:04.956Z,9.57
2018-09-14T00:46:34.930Z,8.90
2018-09-14T00:49:04.015Z,8.00
2018-09-14T00:51:33.011Z,7.87
2018-09-14T00:54:01.972Z,13.30
2018-09-14T00:56:31.494Z,9.23
2018-09-14T00:59:00.949Z,11.40
2018-09-14T01:01:30.474Z,9.63
2018-09-14T01:04:00.753Z,10.43
2018-09-14T01:06:29.878Z,8.13
2018-09-14T01:08:58.796Z,8.13
2018-09-14T01:11:27.859Z,9.10
2018-09-14T01:13:56.824Z,8.40
2018-09-14T01:16:27.060Z,11.17
2018-09-14T01:18:55.977Z,12.00
2018-09-14T01:21:25.882Z,10.23
2018-09-14T01:23:54.801Z,11.10
2018-09-14T01:26:23.773Z,8.47
2018-09-14T01:28:52.788Z,7.10
2018-09-14T01:31:21.841Z,8.87
2018-09-14T01:33:51.875Z,9.43
2018-09-14T01:36:20.946Z,10.13
2018-09-14T01:38:49.902Z,10.20
2018-09-14T01:41:19.776Z,7.13
2018-09-14T01:43:48.712Z,6.70
2018-09-14T01:46:17.870Z,9.70
2018-09-14T01:48:46.978Z,11.87
2018-09-14T01:51:16.924Z,10.03
2018-09-14T01:53:45.937Z,8.87
2018-09-14T01:56:14.925Z,10.33
2018-09-14T01:58:43.869Z,9.60
2018-09-14T02:01:13.791Z,10.67
2018-09-14T02:03:42.800Z,9.47
2018-09-14T02:06:12.409Z,12.60
2018-09-14T02:08:41.770Z,9.37
2018-09-14T02:11:11.237Z,7.10
2018-09-14T02:13:40.680Z,8.90
2018-09-14T02:16:09.977Z,9.20
2018-09-14T02:18:39.489Z,10.13
2018-09-14T02:21:08.806Z,8.37
2018-09-14T02:23:38.707Z,10.20
2018-09-14T02:26:07.808Z,10.03
2018-09-14T02:28:36.767Z,10.07
2018-09-14T02:31:06.851Z,11.13
2018-09-14T02:33:35.937Z,12.77
2018-09-14T02:36:04.949Z,9.47
2018-09-14T02:38:33.943Z,13.53
2018-09-14T02:41:03.952Z,10.77
2018-09-14T02:43:32.897Z,13.60
2018-09-14T02:46:01.889Z,10.70
2018-09-14T02:48:30.824Z,10.73
2018-09-14T02:50:59.926Z,9.50
2018-09-14T02:53:28.949Z,11.60
2018-09-14T02:55:57.914Z,10.83
2018-09-14T02:58:26.905Z,10.57
2018-09-14T03:00:55.877Z,11.10
2018-09-14T03:03:24.925Z,12.17
2018-09-14T03:05:54.884Z,11.67
2018-09-14T03:08:24.794Z,11.67
2018-09-14T03:10:53.674Z,11.33
2018-09-14T03:13:22.835Z,11.27
2018-09-14T03:15:51.793Z,14.13
2018-09-14T03:18:20.815Z,11.50
2018-09-14T03:20:49.794Z,9.33
2018-09-14T03:23:18.803Z,11.53
2018-09-14T03:25:47.795Z,11.27
2018-09-14T03:28:16.783Z,10.93
2018-09-14T03:30:45.815Z,10.37
2018-09-14T03:33:14.781Z,10.93
2018-09-14T03:35:43.942Z,9.10
2018-09-14T03:38:12.962Z,13.07
2018-09-14T03:40:41.899Z,10.80
2018-09-14T03:43:10.983Z,12.60
2018-09-14T03:45:39.962Z,10.33
2018-09-14T03:48:09.907Z,11.93
2018-09-14T03:50:40.234Z,10.87
2018-09-14T03:53:09.246Z,10.90
2018-09-14T03:55:39.149Z,11.13
2018-09-14T03:58:09.173Z,12.33
2018-09-14T04:00:38.178Z,12.00
2018-09-14T04:03:07.659Z,13.53
2018-09-14T04:05:36.688Z,13.17
2018-09-14T04:08:05.806Z,11.43
2018-09-14T04:10:34.815Z,13.40
2018-09-14T04:13:03.748Z,15.53
2018-09-14T04:15:32.745Z,13.83
2018-09-14T04:18:01.771Z,11.37
2018-09-14T04:20:30.711Z,11.30
2018-09-14T04:23:00.630Z,12.23
2018-09-14T04:25:30.568Z,10.33
2018-09-14T04:27:59.609Z,10.77
2018-09-14T04:30:28.694Z,12.17
2018-09-14T04:32:57.628Z,9.67
2018-09-14T04:35:27.570Z,12.17
2018-09-14T04:37:56.825Z,12.07
2018-09-14T04:40:26.705Z,11.13
2018-09-14T04:42:55.672Z,14.30
2018-09-14T04:45:24.708Z,14.30
2018-09-14T04:47:53.675Z,11.13
2018-09-14T04:50:22.684Z,11.27
2018-09-14T04:52:51.700Z,11.33
2018-09-14T04:55:21.666Z,10.73
2018-09-14T04:57:50.689Z,11.33
2018-09-14T05:00:19.812Z,9.10
2018-09-14T05:02:49.285Z,13.70
2018-09-14T05:05:18.275Z,11.97
2018-09-14T05:07:47.257Z,13.37
2018-09-14T05:10:16.251Z,11.33
2018-09-14T05:12:45.262Z,14.70
2018-09-14T05:15:14.221Z,12.33
2018-09-14T05:17:43.452Z,14.90
2018-09-14T05:20:12.397Z,12.00
2018-09-14T05:22:41.347Z,16.40
2018-09-14T05:25:10.327Z,13.80
2018-09-14T05:27:40.210Z,13.60
2018-09-14T05:30:09.201Z,12.47
2018-09-14T05:32:38.213Z,12.13
2018-09-14T05:35:07.210Z,12.07
2018-09-14T05:37:36.128Z,12.70
2018-09-14T05:40:05.303Z,11.53
2018-09-14T05:42:34.462Z,13.90
2018-09-14T05:45:03.537Z,11.03
2018-09-14T05:47:32.452Z,14.80
2018-09-14T05:50:01.339Z,13.83
2018-09-14T05:52:30.376Z,11.53
2018-09-14T05:54:59.400Z,14.50
2018-09-14T05:57:28.394Z,15.67
2018-09-14T05:59:57.257Z,13.43
2018-09-14T06:02:26.518Z,17.43
2018-09-14T06:04:56.442Z,15.53
2018-09-14T06:07:25.520Z,14.73
2018-09-14T06:09:54.707Z,16.37
2018-09-14T06:12:23.866Z,13.57
2018-09-14T06:14:52.774Z,19.60
2018-09-14T06:17:21.851Z,13.27
2018-09-14T06:19:50.864Z,16.13
2018-09-14T06:22:19.903Z,17.23
2018-09-14T06:24:49.813Z,17.50
2018-09-14T06:27:18.710Z,20.23
2018-09-14T06:29:47.688Z,17.73
2018-09-14T06:32:17.635Z,19.57
2018-09-14T06:34:46.627Z,20.30
2018-09-14T06:37:15.566Z,20.00
2018-09-14T06:39:44.554Z,20.13
2018-09-14T06:42:13.394Z,24.87
2018-09-14T06:44:42.317Z,20.57
2018-09-14T06:47:11.396Z,20.47
2018-09-14T06:49:40.262Z,26.37
2018-09-14T06:52:09.299Z,22.83
2018-09-14T06:54:38.133Z,24.20
2018-09-14T06:57:08.115Z,26.40
2018-09-14T06:59:37.678Z,23.33
2018-09-14T07:02:06.681Z,24.97
2018-09-14T07:04:35.694Z,25.10
2018-09-14T07:07:04.692Z,25.23
2018-09-14T07:09:33.610Z,28.80
2018-09-14T07:12:02.536Z,30.90
2018-09-14T07:14:31.537Z,31.50
2018-09-14T07:17:00.637Z,31.63
2018-09-14T07:19:29.724Z,33.67
2018-09-14T07:21:58.870Z,32.53
2018-09-14T07:24:27.585Z,32.33
2018-09-14T07:26:56.673Z,30.13
2018-09-14T07:29:25.591Z,32.87
2018-09-14T07:31:54.698Z,34.53
2018-09-14T07:34:23.638Z,38.60
2018-09-14T07:36:52.655Z,36.07
2018-09-14T07:39:22.601Z,34.63
2018-09-14T07:41:51.793Z,37.83
2018-09-14T07:44:20.688Z,35.33
2018-09-14T07:46:49.605Z,32.73
2018-09-14T07:49:19.654Z,34.20
2018-09-14T07:51:48.627Z,36.20
2018-09-14T07:54:17.582Z,34.57
2018-09-14T07:56:46.551Z,35.17
2018-09-14T07:59:15.453Z,36.90
2018-09-14T08:01:44.336Z,39.57
2018-09-14T08:04:13.383Z,36.73
2018-09-14T08:06:42.265Z,37.33
2018-09-14T08:09:13.339Z,38.00
2018-09-14T08:11:42.587Z,34.90
2018-09-14T08:14:11.703Z,35.60
2018-09-14T08:16:40.663Z,36.90
2018-09-14T08:19:09.667Z,34.23
2018-09-14T08:21:38.721Z,39.07
2018-09-14T08:24:07.569Z,34.93
2018-09-14T08:26:36.485Z,36.47
2018-09-14T08:29:05.427Z,36.70
2018-09-14T08:31:34.392Z,39.70
2018-09-14T08:34:03.278Z,33.90
2018-09-14T08:36:32.226Z,36.37
2018-09-14T08:39:01.390Z,33.93
2018-09-14T08:41:30.451Z,32.80
2018-09-14T08:43:59.437Z,36.97
2018-09-14T08:46:28.338Z,34.23
2018-09-14T08:48:57.243Z,37.40
2018-09-14T08:51:26.104Z,30.47
2018-09-14T08:53:55.016Z,31.60
2018-09-14T08:56:24.278Z,30.80
2018-09-14T08:58:53.511Z,29.80
2018-09-14T09:01:22.425Z,23.40
2018-09-14T09:03:52.418Z,30.00
2018-09-14T09:06:21.319Z,26.47
2018-09-14T09:08:50.263Z,23.93
2018-09-14T09:11:19.201Z,26.67
2018-09-14T09:13:48.130Z,27.60
2018-09-14T09:16:17.015Z,27.80
2018-09-14T09:18:46.294Z,31.40
2018-09-14T09:21:15.267Z,28.53
2018-09-14T09:23:44.157Z,33.83
2018-09-14T09:26:13.140Z,29.97
2018-09-14T09:28:42.048Z,34.97
2018-09-14T09:31:10.942Z,37.73
2018-09-14T09:33:40.903Z,33.57
2018-09-14T09:36:09.864Z,36.63
2018-09-14T09:38:38.771Z,34.10
2018-09-14T09:41:07.914Z,35.63
2018-09-14T09:43:36.941Z,38.87
2018-09-14T09:46:05.718Z,39.87
2018-09-14T09:48:34.633Z,35.60
2018-09-14T09:51:03.893Z,46.37
2018-09-14T09:53:34.108Z,31.33
2018-09-14T09:56:03.024Z,37.53
2018-09-14T09:58:32.019Z,37.63
2018-09-14T10:01:06.277Z,37.13
2018-09-14T10:03:40.537Z,31.80
2018-09-14T10:06:14.685Z,43.27
2018-09-14T10:08:44.638Z,33.33
2018-09-14T10:11:13.721Z,34.07
2018-09-14T10:13:42.695Z,30.53
2018-09-14T10:16:11.682Z,30.77
2018-09-14T10:18:40.726Z,27.97
2018-09-14T10:21:09.806Z,25.07
2018-09-14T10:23:38.969Z,30.13
2018-09-14T10:26:08.920Z,21.57
2018-09-14T10:28:38.947Z,27.37
2018-09-14T10:31:08.268Z,25.03
2018-09-14T10:33:37.236Z,22.03
2018-09-14T10:36:07.263Z,20.40
2018-09-14T10:38:36.240Z,21.83
2018-09-14T10:41:07.175Z,19.20
2018-09-14T10:43:36.176Z,15.87
2018-09-14T10:46:05.591Z,18.00
2018-09-14T10:48:34.565Z,17.30
2018-09-14T10:51:03.595Z,18.93
2018-09-14T10:53:32.550Z,19.53
2018-09-14T10:56:01.504Z,17.23
2018-09-14T10:58:35.474Z,14.73
2018-09-14T11:01:04.460Z,14.67
2018-09-14T11:03:33.424Z,10.97
2018-09-14T11:06:03.365Z,13.53
2018-09-14T11:08:32.349Z,13.47
2018-09-14T11:11:01.338Z,12.83
2018-09-14T11:13:30.388Z,10.57
2018-09-14T11:15:59.377Z,13.27
2018-09-14T11:18:28.531Z,12.23
2018-09-14T11:20:57.426Z,14.10
2018-09-14T11:23:26.483Z,14.00
2018-09-14T11:25:56.392Z,10.07
2018-09-14T11:28:26.389Z,11.30
2018-09-14T11:30:57.439Z,8.73
2018-09-14T11:33:26.326Z,15.57
2018-09-14T11:35:55.267Z,13.17
2018-09-14T11:38:25.302Z,13.87
2018-09-14T11:40:54.192Z,10.60
2018-09-14T11:43:23.163Z,12.40
2018-09-14T11:45:53.275Z,17.87
2018-09-14T11:48:22.234Z,9.27
2018-09-14T11:50:52.141Z,11.53
2018-09-14T11:53:21.331Z,11.33
2018-09-14T11:55:50.254Z,12.30
2018-09-14T11:58:20.222Z,15.63
2018-09-14T12:00:49.794Z,10.07
2018-09-14T12:03:18.795Z,11.83
2018-09-14T12:05:48.713Z,13.50
2018-09-14T12:08:17.731Z,11.13
2018-09-14T12:10:47.751Z,12.63
2018-09-14T12:13:17.792Z,11.13
2018-09-14T12:15:47.834Z,13.67
2018-09-14T12:18:16.842Z,12.10
2018-09-14T12:20:45.992Z,11.33
2018-09-14T12:23:14.960Z,14.13
2018-09-14T12:25:44.993Z,13.57
2018-09-14T12:28:15.030Z,11.53
2018-09-14T12:30:45.993Z,10.07
2018-09-14T12:33:15.004Z,14.80
2018-09-14T12:35:45.006Z,9.03
2018-09-14T12:38:13.949Z,13.80
2018-09-14T12:40:44.953Z,10.90
2018-09-14T12:43:13.965Z,13.83
2018-09-14T12:45:45.247Z,8.67
2018-09-14T12:48:14.664Z,13.63
2018-09-14T12:50:44.248Z,11.70
2018-09-14T12:53:13.673Z,11.07
2018-09-14T12:55:43.656Z,12.93
2018-09-14T12:58:12.640Z,13.27
2018-09-14T13:00:41.716Z,10.80
2018-09-14T13:03:10.686Z,13.83
2018-09-14T13:05:39.584Z,13.23
2018-09-14T13:08:09.508Z,10.80
2018-09-14T13:10:39.472Z,12.20
2018-09-14T13:13:08.421Z,10.23
2018-09-14T13:15:39.681Z,12.47
2018-09-14T13:18:10.725Z,11.23
2018-09-14T13:20:39.671Z,12.47
2018-09-14T13:23:09.641Z,10.90
2018-09-14T13:25:39.670Z,10.40
2018-09-14T13:28:09.726Z,9.77
2018-09-14T13:30:38.532Z,11.03
2018-09-14T13:33:08.500Z,10.13
2018-09-14T13:35:37.458Z,10.23
2018-09-14T13:38:07.396Z,11.80
2018-09-14T13:40:36.361Z,10.87
2018-09-14T13:43:05.423Z,9.33
2018-09-14T13:45:34.734Z,11.53
2018-09-14T13:48:04.057Z,8.13
2018-09-14T13:50:33.484Z,10.50
2018-09-14T13:53:03.016Z,11.10
2018-09-14T13:55:32.689Z,8.20
2018-09-14T13:58:02.791Z,8.90
2018-09-14T14:00:34.206Z,8.57
2018-09-14T14:03:03.634Z,12.73
2018-09-14T14:05:33.604Z,10.77
2018-09-14T14:08:02.624Z,9.63
2018-09-14T14:10:31.551Z,7.43
2018-09-14T14:13:02.581Z,8.17
2018-09-14T14:15:32.696Z,8.37
2018-09-14T14:18:02.635Z,8.07
2018-09-14T14:20:31.626Z,9.63
2018-09-14T14:23:01.540Z,7.27
2018-09-14T14:25:30.509Z,9.83
2018-09-14T14:27:59.407Z,10.47
2018-09-14T14:30:29.339Z,9.53
2018-09-14T14:32:58.333Z,7.53
2018-09-14T14:35:29.237Z,9.40
2018-09-14T14:37:58.112Z,8.83
2018-09-14T14:40:26.987Z,11.73
2018-09-14T14:42:56.981Z,9.83
2018-09-14T14:45:25.941Z,8.40
2018-09-14T14:47:56.094Z,9.03
2018-09-14T14:50:25.059Z,7.13
2018-09-14T14:52:54.116Z,10.17
2018-09-14T14:55:23.032Z,5.30
2018-09-14T14:57:52.064Z,10.30
2018-09-14T15:00:22.995Z,9.53
2018-09-14T15:02:52.003Z,15.70
2018-09-14T15:05:20.987Z,9.20
2018-09-14T15:07:49.980Z,6.97
2018-09-14T15:10:18.961Z,8.03
2018-09-14T15:12:48.882Z,11.27
2018-09-14T15:15:17.874Z,11.50
2018-09-14T15:17:46.899Z,12.20
2018-09-14T15:20:15.878Z,7.67
2018-09-14T15:22:46.007Z,8.50
2018-09-14T15:25:16.389Z,11.00
2018-09-14T15:27:47.119Z,12.80
2018-09-14T15:30:17.157Z,11.93
2018-09-14T15:32:47.077Z,7.00
2018-09-14T15:35:17.009Z,7.53
2018-09-14T15:37:46.199Z,7.70
2018-09-14T15:40:15.800Z,8.53
2018-09-14T15:42:45.245Z,7.60
2018-09-14T15:45:14.568Z,7.97
2018-09-14T15:47:44.910Z,8.53
2018-09-14T15:50:14.268Z,8.63
2018-09-14T15:52:43.721Z,8.93
2018-09-14T15:55:14.211Z,8.37
2018-09-14T15:57:43.585Z,11.27
2018-09-14T16:00:13.235Z,6.70
2018-09-14T16:02:43.331Z,8.10
2018-09-14T16:05:12.263Z,6.30
2018-09-14T16:07:42.279Z,7.97
2018-09-14T16:10:11.145Z,6.57
2018-09-14T16:12:41.115Z,7.70
2018-09-14T16:15:10.145Z,8.30
2018-09-14T16:17:39.082Z,7.97
2018-09-14T16:20:08.980Z,6.27
2018-09-14T16:22:38.938Z,9.87
2018-09-14T16:25:07.892Z,10.13
2018-09-14T16:27:36.923Z,8.93
2018-09-14T16:30:06.388Z,11.17
2018-09-14T16:32:36.539Z,8.70
2018-09-14T16:35:06.553Z,7.90
2018-09-14T16:37:35.541Z,6.83
2018-09-14T16:40:04.545Z,8.70
2018-09-14T16:42:34.530Z,7.03
2018-09-14T16:45:03.559Z,7.40
2018-09-14T16:47:32.541Z,9.60
2018-09-14T16:50:02.445Z,8.17
2018-09-14T16:52:32.414Z,7.13
2018-09-14T16:55:01.426Z,6.67
2018-09-14T16:57:30.457Z,6.43
2018-09-14T17:00:01.526Z,5.50
2018-09-14T17:02:31.553Z,5.70
2018-09-14T17:05:00.518Z,5.93
2018-09-14T17:07:29.543Z,5.73
2018-09-14T17:09:58.474Z,6.57
2018-09-14T17:12:28.400Z,6.13
2018-09-14T17:14:57.457Z,6.87
2018-09-14T17:17:26.964Z,8.20
2018-09-14T17:19:56.960Z,7.00
2018-09-14T17:22:26.596Z,3.77
2018-09-14T17:24:56.878Z,5.10
2018-09-14T17:27:26.221Z,4.80
2018-09-14T17:29:55.712Z,5.80
2018-09-14T17:32:25.848Z,5.60
2018-09-14T17:34:55.824Z,4.20
2018-09-14T17:37:24.750Z,6.17
2018-09-14T17:39:53.665Z,4.03
2018-09-14T17:42:23.674Z,7.17
2018-09-14T17:44:52.681Z,8.40
2018-09-14T17:47:21.685Z,7.47
2018-09-14T17:49:50.867Z,7.53
2018-09-14T17:52:19.776Z,5.73
2018-09-14T17:54:48.752Z,10.60
2018-09-14T17:57:18.762Z,6.33
2018-09-14T17:59:47.657Z,5.80
2018-09-14T18:02:17.214Z,6.53
2018-09-14T18:04:46.837Z,9.10
2018-09-14T18:07:19.390Z,6.27
2018-09-14T18:09:48.322Z,5.30
2018-09-14T18:12:18.306Z,6.90
2018-09-14T18:14:47.249Z,9.80
2018-09-14T18:17:17.180Z,7.07
2018-09-14T18:19:46.212Z,6.67
2018-09-14T18:22:17.347Z,7.90
2018-09-14T18:24:46.181Z,8.23
2018-09-14T18:27:15.099Z,5.80
2018-09-14T18:29:44.081Z,8.43
2018-09-14T18:32:13.090Z,8.13
2018-09-14T18:34:41.984Z,12.37
2018-09-14T18:37:11.050Z,13.27
2018-09-14T18:39:40.959Z,8.23
2018-09-14T18:42:09.917Z,9.23
2018-09-14T18:44:39.065Z,11.87
2018-09-14T18:47:10.016Z,11.83
2018-09-14T18:49:39.007Z,8.23
2018-09-14T18:52:08.034Z,9.97
2018-09-14T18:54:36.992Z,9.23
2018-09-14T18:57:05.954Z,8.63
2018-09-14T18:59:35.895Z,8.13
2018-09-14T19:02:04.997Z,8.53
2018-09-14T19:04:34.215Z,13.10
2018-09-14T19:07:03.157Z,9.00
2018-09-14T19:09:32.054Z,10.03
2018-09-14T19:12:01.972Z,8.77
2018-09-14T19:14:31.996Z,8.47
2018-09-14T19:17:01.143Z,8.93
2018-09-14T19:19:30.620Z,6.67
2018-09-14T19:21:59.665Z,8.73
2018-09-14T19:24:28.688Z,5.73
2018-09-14T19:26:57.570Z,8.57
2018-09-14T19:29:28.366Z,8.97
2018-09-14T19:31:57.325Z,6.53
2018-09-14T19:34:26.319Z,7.50
2018-09-14T19:36:55.266Z,7.17
2018-09-14T19:39:24.212Z,8.03
2018-09-14T19:41:55.125Z,10.30
2018-09-14T19:44:24.141Z,10.20
2018-09-14T19:46:54.082Z,12.33
2018-09-14T19:49:23.066Z,13.40
2018-09-14T19:51:51.989Z,9.47
2018-09-14T19:54:20.896Z,12.73
2018-09-14T19:56:50.002Z,13.27
2018-09-14T19:59:19.961Z,11.37
2018-09-14T20:01:48.953Z,8.30
2018-09-14T20:04:17.885Z,13.37
2018-09-14T20:06:47.875Z,10.67
2018-09-14T20:09:16.801Z,12.63
2018-09-14T20:11:45.838Z,10.00
2018-09-14T20:14:15.033Z,11.93
2018-09-14T20:16:44.216Z,10.80
2018-09-14T20:19:13.235Z,13.23
2018-09-14T20:21:42.470Z,12.23
2018-09-14T20:24:11.664Z,12.23
2018-09-14T20:26:41.148Z,9.87
2018-09-14T20:29:10.364Z,13.87
2018-09-14T20:31:39.635Z,12.03
2018-09-14T20:34:08.584Z,10.90
2018-09-14T20:36:37.644Z,12.50
2018-09-14T20:39:09.598Z,11.70
2018-09-14T20:41:38.655Z,9.33
2018-09-14T20:44:07.672Z,10.43
2018-09-14T20:46:37.112Z,11.13
2018-09-14T20:49:06.009Z,10.50
2018-09-14T20:51:34.939Z,10.07
2018-09-14T20:54:04.042Z,10.47
2018-09-14T20:56:33.268Z,13.53
2018-09-14T20:59:03.344Z,9.23
2018-09-14T21:01:32.284Z,7.93
2018-09-14T21:04:01.202Z,13.87
2018-09-14T21:06:31.133Z,14.27
2018-09-14T21:09:01.353Z,13.73
2018-09-14T21:11:30.384Z,12.67
2018-09-14T21:13:59.353Z,9.27
2018-09-14T21:16:28.401Z,13.87
2018-09-14T21:18:57.343Z,10.27
2018-09-14T21:21:26.381Z,12.13
2018-09-14T21:23:55.375Z,10.73
2018-09-14T21:26:24.333Z,12.17
2018-09-14T21:28:53.481Z,9.80
2018-09-14T21:31:22.481Z,13.90
2018-09-14T21:33:51.366Z,8.60
2018-09-14T21:36:20.288Z,10.57
2018-09-14T21:38:49.269Z,8.23
2018-09-14T21:41:19.179Z,9.83
2018-09-14T21:43:48.497Z,12.30
2018-09-14T21:46:17.673Z,9.23
2018-09-14T21:48:47.602Z,14.17
2018-09-14T21:51:16.597Z,13.07
2018-09-14T21:53:45.725Z,9.13
2018-09-14T21:56:15.630Z,9.13
2018-09-14T21:58:44.760Z,9.60
2018-09-14T22:01:13.678Z,13.50
2018-09-14T22:03:43.958Z,8.70
2018-09-14T22:06:13.064Z,13.63
2018-09-14T22:08:42.152Z,11.47
2018-09-14T22:11:11.156Z,10.80
2018-09-14T22:13:40.303Z,9.60
2018-09-14T22:16:09.219Z,13.67
2018-09-14T22:18:38.421Z,10.83
2018-09-14T22:21:07.763Z,10.17
2018-09-14T22:23:36.664Z,12.60
2018-09-14T22:26:07.863Z,8.23
2018-09-14T22:28:36.904Z,8.97
2018-09-14T22:31:05.779Z,7.33
2018-09-14T22:33:34.657Z,7.97
2018-09-14T22:36:03.584Z,9.40
2018-09-14T22:38:32.529Z,8.20
2018-09-14T22:41:01.524Z,8.50
2018-09-14T22:43:30.844Z,9.10
2018-09-14T22:45:59.906Z,8.13
2018-09-14T22:48:28.890Z,7.07
2018-09-14T22:50:58.921Z,6.67
2018-09-14T22:53:27.908Z,10.90
2018-09-14T22:55:56.789Z,6.73
2018-09-14T22:58:25.724Z,9.20
2018-09-14T23:00:59.869Z,8.80
2018-09-14T23:03:29.793Z,6.67
2018-09-14T23:05:58.804Z,8.77
2018-09-14T23:08:27.763Z,9.07
2018-09-14T23:10:57.689Z,11.00
2018-09-14T23:13:27.630Z,6.03
2018-09-14T23:16:01.369Z,9.37
2018-09-14T23:18:31.183Z,7.67
2018-09-14T23:21:00.834Z,8.03
2018-09-14T23:23:30.801Z,9.33
2018-09-14T23:26:02.985Z,8.77
2018-09-14T23:28:31.873Z,8.53
2018-09-14T23:31:00.767Z,6.60
2018-09-14T23:33:29.654Z,6.63
2018-09-14T23:35:58.513Z,7.00
2018-09-14T23:38:27.598Z,10.13
2018-09-14T23:40:56.563Z,9.57
2018-09-14T23:43:25.593Z,8.20
2018-09-14T23:45:54.563Z,9.90
2018-09-14T23:48:23.527Z,6.23
2018-09-14T23:50:52.488Z,9.83
2018-09-14T23:53:21.458Z,6.77
2018-09-14T23:55:50.403Z,8.60
2018-09-14T23:58:21.340Z,8.00
